Time;durP1;ratioP1;P1;durP2;ratioP2;P2;SDS_P1;SDS_P2;PMS_P1;PMS_P2;Temp;Humidity;BMP_temperature;BMP_pressure;BME280_temperature;BME280_humidity;BME280_pressure;Samples;Min_cycle;Max_cycle;Signal;HPM_P1;HPM_P2
2022/10/13 00:00:24;;;;;;;24.23;12.40;;;8.10;99.90;;;;;;4956498;29;20023;-71
2022/10/13 00:02:50;;;;;;;26.33;12.95;;;8.00;99.90;;;;;;4957725;28;20123;-72
2022/10/13 00:05:16;;;;;;;23.63;12.80;;;8.00;99.90;;;;;;4960584;28;20054;-72
2022/10/13 00:07:41;;;;;;;22.58;13.23;;;8.00;99.90;;;;;;4960478;28;20067;-72
2022/10/13 00:10:07;;;;;;;19.00;12.85;;;8.00;99.90;;;;;;4960614;28;20541;-72
2022/10/13 00:12:37;;;;;;;23.52;13.32;;;7.90;99.90;;;;;;4960935;28;20445;-72
2022/10/13 00:15:05;;;;;;;22.48;12.60;;;8.00;99.90;;;;;;4959611;29;20034;-72
2022/10/13 00:17:31;;;;;;;21.35;13.27;;;7.90;99.90;;;;;;4960629;28;20027;-72
2022/10/13 00:19:57;;;;;;;20.25;13.20;;;8.00;99.90;;;;;;4961370;28;20102;-72
2022/10/13 00:22:22;;;;;;;22.75;13.85;;;8.00;99.90;;;;;;4959468;29;20059;-72
2022/10/13 00:24:52;;;;;;;25.95;14.60;;;8.00;99.90;;;;;;4959056;29;20485;-72
2022/10/13 00:27:17;;;;;;;27.98;13.73;;;8.00;99.90;;;;;;4960349;28;20027;-72
2022/10/13 00:29:43;;;;;;;19.75;12.98;;;8.00;99.90;;;;;;4960122;29;20050;-71
2022/10/13 00:32:09;;;;;;;28.80;14.25;;;8.10;99.90;;;;;;4960774;28;20035;-72
2022/10/13 00:34:37;;;;;;;19.38;12.60;;;8.10;99.90;;;;;;4961139;28;20126;-72
2022/10/13 00:37:03;;;;;;;26.48;12.73;;;8.10;99.90;;;;;;4961211;29;20376;-71
2022/10/13 00:39:28;;;;;;;17.73;12.38;;;8.10;99.90;;;;;;4961143;29;20026;-71
2022/10/13 00:41:55;;;;;;;21.13;13.05;;;8.10;99.90;;;;;;4943176;29;20114;-72
2022/10/13 00:44:54;;;;;;;22.92;12.57;;;8.10;99.90;;;;;;4960850;29;20395;-72
2022/10/13 00:47:20;;;;;;;28.50;12.85;;;8.10;99.90;;;;;;4959676;29;20023;-72
2022/10/13 00:49:48;;;;;;;32.03;14.50;;;8.10;99.90;;;;;;4960260;29;20098;-72
2022/10/13 00:52:15;;;;;;;24.00;14.10;;;8.10;99.90;;;;;;4943393;29;20023;-71
2022/10/13 00:54:41;;;;;;;24.75;13.50;;;8.20;99.90;;;;;;4960418;29;20471;-71
2022/10/13 00:57:08;;;;;;;18.98;12.23;;;8.10;99.90;;;;;;4942674;29;20034;-71
2022/10/13 00:59:34;;;;;;;22.08;12.25;;;8.20;99.90;;;;;;4943015;29;20478;-72
2022/10/13 01:02:02;;;;;;;21.73;12.38;;;8.20;99.90;;;;;;4960669;29;20042;-72
2022/10/13 01:04:36;;;;;;;18.73;12.30;;;8.20;99.90;;;;;;4960983;29;20422;-71
2022/10/13 01:07:03;;;;;;;24.20;12.55;;;8.20;99.90;;;;;;4960629;29;20028;-71
2022/10/13 01:09:36;;;;;;;25.92;12.27;;;8.20;99.90;;;;;;4960622;29;20424;-72
2022/10/13 01:12:37;;;;;;;19.23;12.48;;;8.20;99.90;;;;;;4960029;29;20027;-72
2022/10/13 01:15:06;;;;;;;22.75;12.32;;;8.20;99.90;;;;;;4942102;29;20031;-71
2022/10/13 01:17:40;;;;;;;20.60;12.85;;;8.20;99.90;;;;;;4959932;29;20031;-71
2022/10/13 01:20:33;;;;;;;23.88;13.15;;;8.20;99.90;;;;;;4959512;29;20027;-71
2022/10/13 01:23:42;;;;;;;24.60;12.60;;;8.10;99.90;;;;;;4959421;29;20383;-72
2022/10/13 01:26:35;;;;;;;17.98;12.02;;;8.10;99.90;;;;;;4942654;29;20027;-72
2022/10/13 01:29:06;;;;;;;26.00;13.52;;;8.10;99.90;;;;;;4961745;29;20023;-71
2022/10/13 01:31:38;;;;;;;22.17;13.13;;;8.10;99.90;;;;;;4960965;29;20027;-71
2022/10/13 01:34:17;;;;;;;23.50;12.95;;;8.10;99.90;;;;;;4960404;28;20106;-72
2022/10/13 01:36:42;;;;;;;;;;;8.10;99.90;;;;;;4944107;29;20042;-71
2022/10/13 01:39:10;;;;;;;20.90;12.43;;;8.10;99.90;;;;;;4961082;29;19975;-72
2022/10/13 01:41:39;;;;;;;23.35;13.02;;;8.10;99.90;;;;;;4942072;29;20063;-72
2022/10/13 01:44:19;;;;;;;21.10;12.90;;;8.10;99.90;;;;;;4942043;29;20039;-72
2022/10/13 01:46:47;;;;;;;22.75;12.52;;;8.00;99.90;;;;;;4942195;29;20058;-72
2022/10/13 01:49:17;;;;;;;23.80;12.23;;;8.00;99.90;;;;;;4959572;29;20054;-71
2022/10/13 01:51:43;;;;;;;31.15;13.57;;;7.90;99.90;;;;;;4959364;29;20023;-71
2022/10/13 01:54:10;;;;;;;21.67;14.00;;;7.90;99.90;;;;;;4958675;29;20031;-71
2022/10/13 01:56:35;;;;;;;19.25;11.48;;;7.90;99.90;;;;;;4958428;29;20027;-71
2022/10/13 01:59:05;;;;;;;19.35;12.52;;;7.90;99.90;;;;;;4958699;29;20078;-71
2022/10/13 02:02:04;;;;;;;25.08;13.02;;;7.80;99.90;;;;;;4958674;29;20371;-72
2022/10/13 02:04:45;;;;;;;20.63;13.05;;;7.80;99.90;;;;;;4941383;29;20382;-71
2022/10/13 02:07:28;;;;;;;21.77;12.32;;;7.80;99.90;;;;;;4958330;29;20062;-72
2022/10/13 02:09:56;;;;;;;24.45;13.68;;;7.80;99.90;;;;;;4958818;29;20046;-72
2022/10/13 02:12:42;;;;;;;21.50;14.10;;;7.80;99.90;;;;;;4941588;29;20074;-72
2022/10/13 02:15:13;;;;;;;20.55;13.13;;;7.90;99.90;;;;;;4941549;29;20027;-72
2022/10/13 02:17:40;;;;;;;27.33;14.07;;;8.00;99.90;;;;;;4958742;29;20027;-72
2022/10/13 02:20:07;;;;;;;21.40;12.43;;;8.00;99.90;;;;;;4958621;29;20047;-72
2022/10/13 02:22:38;;;;;;;22.35;13.43;;;8.10;99.90;;;;;;4941718;29;20039;-72
2022/10/13 02:25:04;;;;;;;23.45;14.02;;;8.10;99.90;;;;;;4958964;29;20024;-72
2022/10/13 02:27:30;;;;;;;23.05;12.57;;;8.20;99.90;;;;;;4959106;28;20042;-72
2022/10/13 02:29:57;;;;;;;21.75;13.27;;;8.30;99.90;;;;;;4959346;29;20019;-72
2022/10/13 02:32:22;;;;;;;22.40;12.98;;;8.30;99.90;;;;;;4942073;29;20391;-72
2022/10/13 02:34:49;;;;;;;23.17;12.90;;;8.40;99.90;;;;;;4958929;29;20051;-71
2022/10/13 02:37:15;;;;;;;22.33;13.27;;;8.40;99.90;;;;;;4959785;29;20038;-71
2022/10/13 02:39:41;;;;;;;20.92;13.48;;;8.50;99.90;;;;;;4959575;29;20471;-72
2022/10/13 02:42:07;;;;;;;19.50;12.45;;;8.50;99.90;;;;;;4941775;29;20118;-71
2022/10/13 02:44:33;;;;;;;20.50;12.63;;;8.50;99.90;;;;;;4942182;29;20027;-72
2022/10/13 02:46:58;;;;;;;21.42;12.55;;;8.60;99.90;;;;;;4942023;29;20028;-71
2022/10/13 02:49:24;;;;;;;23.75;12.27;;;8.60;99.90;;;;;;4959759;29;20062;-71
2022/10/13 02:51:51;;;;;;;25.00;12.60;;;8.70;99.90;;;;;;4959213;29;20066;-72
2022/10/13 02:54:16;;;;;;;23.63;13.38;;;8.70;99.90;;;;;;4941942;29;20058;-71
2022/10/13 02:56:42;;;;;;;19.75;12.13;;;8.70;99.90;;;;;;4959039;29;20491;-72
2022/10/13 02:59:07;;;;;;;23.10;12.90;;;8.80;99.90;;;;;;4959918;29;20422;-72
2022/10/13 03:01:34;;;;;;;22.02;12.68;;;8.80;99.90;;;;;;4942267;29;20027;-71
2022/10/13 03:04:00;;;;;;;22.38;13.35;;;8.90;99.90;;;;;;4959492;29;20078;-71
2022/10/13 03:06:25;;;;;;;20.73;14.07;;;8.90;99.90;;;;;;4941655;29;20118;-72
2022/10/13 03:08:51;;;;;;;19.25;13.13;;;8.90;99.90;;;;;;4959305;29;20031;-71
2022/10/13 03:11:17;;;;;;;19.23;13.43;;;8.90;99.90;;;;;;4942296;29;20031;-71
2022/10/13 03:13:42;;;;;;;20.15;13.25;;;9.00;99.90;;;;;;4942060;29;20035;-71
2022/10/13 03:16:08;;;;;;;24.10;13.10;;;9.00;99.90;;;;;;4941388;29;20023;-72
2022/10/13 03:18:34;;;;;;;19.88;13.07;;;9.00;99.90;;;;;;4958899;29;20027;-72
2022/10/13 03:21:02;;;;;;;23.23;12.43;;;9.00;99.90;;;;;;4959000;29;20031;-71
2022/10/13 03:23:28;;;;;;;18.35;12.43;;;9.10;99.90;;;;;;4959056;29;20027;-71
2022/10/13 03:25:54;;;;;;;23.52;13.18;;;9.10;99.90;;;;;;4958764;29;20032;-72
2022/10/13 03:28:20;;;;;;;22.48;12.82;;;9.10;99.90;;;;;;4961058;29;20023;-72
2022/10/13 03:30:46;;;;;;;21.17;12.07;;;9.20;99.90;;;;;;4960912;29;20024;-71
2022/10/13 03:33:12;;;;;;;21.63;14.75;;;9.20;99.90;;;;;;4943119;28;20526;-72
2022/10/13 03:35:38;;;;;;;24.90;14.75;;;9.20;99.90;;;;;;4943498;29;20027;-71
2022/10/13 03:38:03;;;;;;;19.15;12.60;;;9.30;99.90;;;;;;4960827;28;20059;-72
2022/10/13 03:40:29;;;;;;;19.88;13.68;;;9.30;99.90;;;;;;4947094;29;20035;-71
2022/10/13 03:42:54;;;;;;;25.42;12.57;;;9.30;99.90;;;;;;4945745;29;20039;-71
2022/10/13 03:45:20;;;;;;;25.42;14.32;;;9.40;99.90;;;;;;4963786;29;20034;-71
2022/10/13 03:47:46;;;;;;;19.52;13.15;;;9.40;99.90;;;;;;4945978;29;20094;-71
2022/10/13 03:50:12;;;;;;;22.33;13.68;;;9.40;99.90;;;;;;4945320;29;20038;-71
2022/10/13 03:52:37;;;;;;;24.52;14.20;;;9.50;99.90;;;;;;4963509;29;20046;-71
2022/10/13 03:55:03;;;;;;;23.02;13.70;;;9.50;99.90;;;;;;4962882;29;20032;-71
2022/10/13 03:57:29;;;;;;;26.13;14.32;;;9.50;99.90;;;;;;4962460;29;20031;-71
2022/10/13 03:59:56;;;;;;;26.05;12.80;;;9.50;99.90;;;;;;4945837;29;20031;-72
2022/10/13 04:02:22;;;;;;;24.25;14.00;;;9.60;99.90;;;;;;4962706;29;20038;-71
2022/10/13 04:04:49;;;;;;;22.65;14.02;;;9.60;99.90;;;;;;4944343;29;20027;-71
2022/10/13 04:07:14;;;;;;;21.73;13.63;;;9.60;99.90;;;;;;4944325;29;20028;-70
2022/10/13 04:09:40;;;;;;;23.48;13.35;;;9.70;99.90;;;;;;4960514;29;20054;-71
2022/10/13 04:12:06;;;;;;;24.15;13.85;;;9.70;99.90;;;;;;4959725;29;20102;-72
2022/10/13 04:14:32;;;;;;;20.90;13.57;;;9.80;99.90;;;;;;4942489;29;20055;-70
2022/10/13 04:16:57;;;;;;;20.80;14.20;;;9.80;99.90;;;;;;4959237;29;20031;-70
2022/10/13 04:19:24;;;;;;;24.73;13.88;;;9.80;99.90;;;;;;4942002;29;20051;-70
2022/10/13 04:21:50;;;;;;;19.67;12.90;;;9.80;99.90;;;;;;4958830;29;20423;-72
2022/10/13 04:24:16;;;;;;;22.85;13.40;;;9.80;99.90;;;;;;4959081;29;20031;-70
2022/10/13 04:26:43;;;;;;;18.58;13.20;;;9.80;99.90;;;;;;4958989;29;20091;-70
2022/10/13 04:29:10;;;;;;;28.63;15.20;;;9.90;99.90;;;;;;4959482;29;20094;-71
2022/10/13 04:31:37;;;;;;;20.92;14.52;;;9.90;99.90;;;;;;4959670;29;20035;-71
2022/10/13 04:34:03;;;;;;;22.08;13.52;;;9.90;99.90;;;;;;4959188;28;20055;-71
2022/10/13 04:36:29;;;;;;;24.20;13.02;;;10.00;99.90;;;;;;4942553;29;20027;-71
2022/10/13 04:38:54;;;;;;;22.27;13.13;;;10.00;99.90;;;;;;4959259;29;20062;-71
2022/10/13 04:41:21;;;;;;;24.00;14.10;;;10.10;99.90;;;;;;4958883;29;20391;-71
2022/10/13 04:43:48;;;;;;;23.17;13.82;;;10.10;99.90;;;;;;4958779;29;20031;-71
2022/10/13 04:46:20;;;;;;;22.95;13.05;;;10.10;99.90;;;;;;4941772;29;20031;-71
2022/10/13 04:48:46;;;;;;;19.80;13.23;;;10.20;99.90;;;;;;4959682;29;20027;-73
2022/10/13 04:51:15;;;;;;;23.25;12.95;;;10.20;99.90;;;;;;4959902;29;20050;-73
2022/10/13 04:53:41;;;;;;;22.70;12.48;;;10.20;99.90;;;;;;4959190;29;20118;-72
2022/10/13 04:56:12;;;;;;;25.10;13.73;;;10.20;99.90;;;;;;4941870;29;20059;-72
2022/10/13 04:58:41;;;;;;;21.83;12.90;;;10.30;99.90;;;;;;4958777;29;20475;-73
2022/10/13 05:01:12;;;;;;;20.10;11.75;;;10.30;99.90;;;;;;4959539;29;20045;-73
2022/10/13 05:03:37;;;;;;;24.85;12.35;;;10.30;99.90;;;;;;4942250;29;20035;-73
2022/10/13 05:06:03;;;;;;;22.48;12.48;;;10.30;99.90;;;;;;4960542;29;20034;-72
2022/10/13 05:08:29;;;;;;;22.52;12.57;;;10.30;99.90;;;;;;4942326;29;20447;-74
2022/10/13 05:10:57;;;;;;;24.27;12.23;;;10.30;99.90;;;;;;4959153;29;20019;-73
2022/10/13 05:13:24;;;;;;;20.60;12.57;;;10.30;99.90;;;;;;4942273;29;20507;-73
2022/10/13 05:15:50;;;;;;;20.77;12.05;;;10.30;99.90;;;;;;4942168;29;20115;-73
2022/10/13 05:18:16;;;;;;;22.45;12.95;;;10.30;99.90;;;;;;4959305;29;20110;-74
2022/10/13 05:20:41;;;;;;;20.63;12.20;;;10.40;99.90;;;;;;4960407;29;20031;-73
2022/10/13 05:23:07;;;;;;;22.52;12.07;;;10.40;99.90;;;;;;4959156;29;20027;-74
2022/10/13 05:25:36;;;;;;;21.25;12.30;;;10.40;99.90;;;;;;4958892;29;20055;-73
2022/10/13 05:28:04;;;;;;;21.60;11.63;;;10.40;99.90;;;;;;4958581;29;20113;-71
2022/10/13 05:30:30;;;;;;;22.10;12.48;;;10.40;99.90;;;;;;4959683;29;20082;-73
2022/10/13 05:32:56;;;;;;;21.95;11.45;;;10.40;99.90;;;;;;4959573;29;20042;-73
2022/10/13 05:35:23;;;;;;;31.42;11.85;;;10.30;99.90;;;;;;4942726;29;20035;-73
2022/10/13 05:37:48;;;;;;;21.75;11.98;;;10.40;99.90;;;;;;4959852;29;20046;-73
2022/10/13 05:40:14;;;;;;;22.60;12.52;;;10.30;99.90;;;;;;4958913;29;20471;-73
2022/10/13 05:42:40;;;;;;;21.55;11.93;;;10.40;99.90;;;;;;4941711;29;20059;-73
2022/10/13 05:45:08;;;;;;;22.95;11.48;;;10.40;99.90;;;;;;4958101;29;20035;-73
2022/10/13 05:47:34;;;;;;;17.92;11.73;;;10.40;99.90;;;;;;4958723;29;20058;-73
2022/10/13 05:50:00;;;;;;;20.13;11.63;;;10.50;99.90;;;;;;4957522;29;20066;-75
2022/10/13 05:52:27;;;;;;;21.38;11.88;;;10.40;99.90;;;;;;4958322;29;20035;-73
2022/10/13 05:55:01;;;;;;;18.33;11.25;;;10.40;99.90;;;;;;4958128;29;20027;-73
2022/10/13 05:57:33;;;;;;;27.58;11.68;;;10.40;99.90;;;;;;4958163;29;20024;-73
2022/10/13 06:00:10;;;;;;;26.70;12.18;;;10.50;99.90;;;;;;4958020;29;20058;-73
2022/10/13 06:02:52;;;;;;;22.50;11.32;;;10.50;99.90;;;;;;4939778;29;20034;-74
2022/10/13 06:05:21;;;;;;;22.63;11.10;;;10.50;99.90;;;;;;4940721;29;20035;-73
2022/10/13 06:07:47;;;;;;;21.35;11.05;;;10.60;99.90;;;;;;4940508;29;20122;-73
2022/10/13 06:10:14;;;;;;;22.13;10.95;;;10.60;99.90;;;;;;4957528;29;20475;-74
2022/10/13 06:12:39;;;;;;;17.42;11.27;;;10.70;99.90;;;;;;4939943;29;20035;-74
2022/10/13 06:15:06;;;;;;;18.52;10.73;;;10.70;99.90;;;;;;4957136;29;20031;-74
2022/10/13 06:17:34;;;;;;;24.27;11.10;;;10.80;99.90;;;;;;4940168;29;20034;-73
2022/10/13 06:20:00;;;;;;;21.17;11.23;;;10.80;99.90;;;;;;4939065;29;20035;-73
2022/10/13 06:22:25;;;;;;;22.33;11.18;;;10.90;99.90;;;;;;4955961;29;20038;-73
2022/10/13 06:24:51;;;;;;;17.98;11.13;;;10.90;99.90;;;;;;4939232;29;20359;-73
2022/10/13 06:27:16;;;;;;;21.23;12.13;;;10.90;99.90;;;;;;4939497;29;20478;-73
2022/10/13 06:29:42;;;;;;;24.33;11.48;;;10.90;99.90;;;;;;4940181;29;20035;-73
2022/10/13 06:32:08;;;;;;;30.17;12.63;;;10.90;99.90;;;;;;4958022;29;20081;-73
2022/10/13 06:34:33;;;;;;;24.20;12.05;;;10.80;99.90;;;;;;4957927;28;20047;-73
2022/10/13 06:36:59;;;;;;;33.25;13.43;;;10.80;99.90;;;;;;4941385;29;20047;-73
2022/10/13 06:39:25;;;;;;;38.03;15.02;;;10.80;99.90;;;;;;4958690;29;20035;-73
2022/10/13 06:41:51;;;;;;;32.00;12.95;;;10.80;99.90;;;;;;4941149;29;20082;-73
2022/10/13 06:44:17;;;;;;;25.90;13.23;;;10.80;99.90;;;;;;4940124;29;20562;-73
2022/10/13 06:46:42;;;;;;;33.15;13.75;;;10.80;99.90;;;;;;4957249;29;20055;-73
2022/10/13 06:49:09;;;;;;;27.83;12.30;;;10.90;99.90;;;;;;4958118;29;20155;-73
2022/10/13 06:51:35;;;;;;;30.30;13.52;;;10.90;99.90;;;;;;4957158;29;20026;-73
2022/10/13 06:54:00;;;;;;;26.95;12.88;;;11.00;99.90;;;;;;4956682;29;20035;-73
2022/10/13 06:56:28;;;;;;;29.88;13.52;;;11.00;99.90;;;;;;4939488;29;20031;-73
2022/10/13 06:58:53;;;;;;;33.35;13.43;;;11.10;99.90;;;;;;4939201;29;20035;-73
2022/10/13 07:01:19;;;;;;;37.05;13.77;;;11.20;99.90;;;;;;4956189;29;20027;-73
2022/10/13 07:03:48;;;;;;;26.88;12.85;;;11.20;99.90;;;;;;4938749;29;20031;-74
2022/10/13 07:06:14;;;;;;;31.75;13.27;;;11.20;99.90;;;;;;4938594;29;20479;-73
2022/10/13 07:08:39;;;;;;;37.15;13.05;;;11.30;99.90;;;;;;4955511;29;20063;-74
2022/10/13 07:11:07;;;;;;;41.60;15.05;;;11.30;99.90;;;;;;4955969;29;20375;-73
2022/10/13 07:13:32;;;;;;;35.97;14.30;;;11.30;99.90;;;;;;4939593;29;20039;-73
2022/10/13 07:16:00;;;;;;;49.63;16.98;;;11.30;99.90;;;;;;4959640;29;20027;-73
2022/10/13 07:18:26;;;;;;;37.00;14.30;;;11.40;99.90;;;;;;4959836;29;20463;-73
2022/10/13 07:20:52;;;;;;;43.17;15.95;;;11.40;99.90;;;;;;4942356;29;20028;-74
2022/10/13 07:23:17;;;;;;;43.85;15.95;;;11.40;99.90;;;;;;4960252;29;20038;-73
2022/10/13 07:25:43;;;;;;;44.00;15.43;;;11.50;99.90;;;;;;4959958;29;20031;-75
2022/10/13 07:28:08;;;;;;;47.42;17.60;;;11.50;99.90;;;;;;4959284;29;20357;-74
2022/10/13 07:30:34;;;;;;;42.65;16.15;;;11.50;99.90;;;;;;4959303;29;20031;-73
2022/10/13 07:33:00;;;;;;;51.22;17.15;;;11.60;99.90;;;;;;4941715;28;20479;-73
2022/10/13 07:35:25;;;;;;;66.78;17.45;;;11.60;99.90;;;;;;4941889;29;20459;-73
2022/10/13 07:37:52;;;;;;;53.63;17.48;;;11.70;99.90;;;;;;4959397;29;20043;-73
2022/10/13 07:40:18;;;;;;;52.00;17.90;;;11.80;99.90;;;;;;4959414;29;20019;-73
2022/10/13 07:42:44;;;;;;;57.88;21.17;;;11.70;99.90;;;;;;4942130;29;20481;-73
2022/10/13 07:45:09;;;;;;;48.97;17.63;;;11.80;99.90;;;;;;4958900;29;20513;-73
2022/10/13 07:47:35;;;;;;;46.83;16.60;;;11.80;99.90;;;;;;4941648;29;20118;-73
2022/10/13 07:50:01;;;;;;;59.35;18.52;;;11.80;99.90;;;;;;4958983;29;20144;-74
2022/10/13 07:52:26;;;;;;;51.60;17.80;;;11.90;99.90;;;;;;4958775;29;20372;-73
2022/10/13 07:54:52;;;;;;;48.33;16.83;;;11.90;99.90;;;;;;4941647;29;20111;-73
2022/10/13 07:57:18;;;;;;;51.80;17.75;;;11.90;99.90;;;;;;4941912;29;20042;-73
2022/10/13 07:59:44;;;;;;;63.60;19.02;;;11.90;99.90;;;;;;4941216;29;20471;-73
2022/10/13 08:02:09;;;;;;;52.58;16.77;;;11.90;99.90;;;;;;4959023;29;20027;-73
2022/10/13 08:04:35;;;;;;;39.85;17.13;;;11.90;99.90;;;;;;4941605;29;20028;-73
2022/10/13 08:07:03;;;;;;;40.90;15.50;;;11.90;99.90;;;;;;4941453;29;20497;-73
2022/10/13 08:09:29;;;;;;;39.20;14.70;;;12.00;99.90;;;;;;4941272;29;20082;-73
2022/10/13 08:11:54;;;;;;;41.83;14.23;;;12.10;99.90;;;;;;4941164;29;20035;-73
2022/10/13 08:14:20;;;;;;;39.78;14.85;;;12.20;99.90;;;;;;4958460;29;20038;-73
2022/10/13 08:16:46;;;;;;;43.92;14.68;;;12.30;99.90;;;;;;4941174;29;20059;-74
2022/10/13 08:19:13;;;;;;;56.95;17.83;;;12.40;99.90;;;;;;4941170;29;20023;-73
2022/10/13 08:21:39;;;;;;;46.10;18.40;;;12.40;99.90;;;;;;4958444;29;20110;-73
2022/10/13 08:24:08;;;;;;;42.47;15.65;;;12.50;99.90;;;;;;4957709;28;20110;-73
2022/10/13 08:26:34;;;;;;;43.13;16.17;;;12.40;99.90;;;;;;4940864;29;20406;-73
2022/10/13 08:28:59;;;;;;;38.65;15.95;;;12.40;99.90;;;;;;4958130;29;20035;-73
2022/10/13 08:31:25;;;;;;;38.08;15.45;;;12.40;99.90;;;;;;4940622;29;20117;-73
2022/10/13 08:33:51;;;;;;;43.38;16.30;;;12.40;99.90;;;;;;4958006;28;20058;-73
2022/10/13 08:36:18;;;;;;;41.28;14.82;;;12.50;99.90;;;;;;4958047;29;20035;-73
2022/10/13 08:38:44;;;;;;;41.97;16.15;;;12.60;99.90;;;;;;4940834;29;20380;-73
2022/10/13 08:41:18;;;;;;;45.28;15.00;;;12.60;99.90;;;;;;4940515;29;20058;-73
2022/10/13 08:43:55;;;;;;;43.13;15.95;;;12.70;99.90;;;;;;4940784;29;20027;-73
2022/10/13 08:46:27;;;;;;;42.95;16.23;;;12.90;99.90;;;;;;4958103;29;20035;-73
2022/10/13 08:48:54;;;;;;;40.78;15.25;;;13.00;99.90;;;;;;4940826;29;20027;-73
2022/10/13 08:51:20;;;;;;;41.72;15.63;;;13.10;99.90;;;;;;4957489;29;20027;-73
2022/10/13 08:53:47;;;;;;;39.05;15.27;;;13.20;99.90;;;;;;4957728;29;20042;-73
2022/10/13 08:56:23;;;;;;;42.35;15.05;;;13.30;99.90;;;;;;4957680;29;20102;-73
2022/10/13 08:58:51;;;;;;;39.83;14.82;;;13.30;99.90;;;;;;4957742;29;20062;-74
2022/10/13 09:01:29;;;;;;;36.97;14.53;;;13.40;99.90;;;;;;4957685;29;20071;-73
2022/10/13 09:04:15;;;;;;;35.75;15.02;;;13.40;99.90;;;;;;4957581;29;20103;-73
2022/10/13 09:06:50;;;;;;;36.83;15.15;;;13.50;99.90;;;;;;4940963;29;20408;-73
2022/10/13 09:09:17;;;;;;;33.95;14.75;;;13.60;99.90;;;;;;4957691;29;20027;-73
2022/10/13 09:11:46;;;;;;;46.05;15.63;;;13.60;99.90;;;;;;4940182;29;20471;-73
2022/10/13 09:14:24;;;;;;;40.30;15.65;;;13.60;99.90;;;;;;4940047;29;20035;-73
2022/10/13 09:16:50;;;;;;;40.25;15.43;;;13.70;99.90;;;;;;4940163;29;20032;-73
2022/10/13 09:19:36;;;;;;;32.58;15.30;;;13.70;99.90;;;;;;4957311;29;20036;-74
2022/10/13 09:22:13;;;;;;;43.20;14.73;;;13.80;99.90;;;;;;4956790;28;20042;-73
2022/10/13 09:24:39;;;;;;;45.25;15.82;;;13.90;99.90;;;;;;4939872;29;20058;-73
2022/10/13 09:27:18;;;;;;;44.95;15.25;;;13.90;99.90;;;;;;4956994;29;20459;-73
2022/10/13 09:29:44;;;;;;;36.05;15.60;;;13.90;99.90;;;;;;4939560;29;20032;-73
2022/10/13 09:32:19;;;;;;;36.97;16.10;;;13.90;99.90;;;;;;4939965;29;20432;-74
2022/10/13 09:34:46;;;;;;;37.28;16.23;;;13.90;99.90;;;;;;4956919;29;20043;-74
2022/10/13 09:37:21;;;;;;;39.45;17.50;;;14.00;99.90;;;;;;4956377;28;20027;-73
2022/10/13 09:40:12;;;;;;;42.03;16.52;;;14.00;99.90;;;;;;4956756;29;20487;-73
2022/10/13 09:42:39;;;;;;;49.72;16.80;;;14.10;99.90;;;;;;4939535;29;20122;-73
2022/10/13 09:45:17;;;;;;;46.33;17.83;;;14.10;99.90;;;;;;4956989;29;20094;-73
2022/10/13 09:47:53;;;;;;;51.95;17.80;;;14.10;99.90;;;;;;4939765;29;20027;-73
2022/10/13 09:50:25;;;;;;;36.50;15.95;;;14.20;99.90;;;;;;4956708;28;20059;-73
2022/10/13 09:52:51;;;;;;;44.78;15.65;;;14.20;99.90;;;;;;4939585;29;20546;-74
2022/10/13 09:55:35;;;;;;;34.38;15.60;;;14.30;99.90;;;;;;4939209;29;20023;-74
2022/10/13 09:58:14;;;;;;;37.22;16.65;;;14.40;99.90;;;;;;4939218;29;20027;-73
2022/10/13 10:00:40;;;;;;;;;;;14.40;99.90;;;;;;4939861;29;20102;-73
2022/10/13 10:03:17;;;;;;;30.77;15.52;;;14.40;99.90;;;;;;4938831;29;20373;-74
2022/10/13 10:06:11;;;;;;;34.03;15.50;;;14.40;99.90;;;;;;4939286;29;20427;-73
2022/10/13 10:09:03;;;;;;;35.50;15.52;;;14.50;99.90;;;;;;4955272;28;20046;-73
2022/10/13 10:11:31;;;;;;;32.95;16.17;;;14.40;99.90;;;;;;4939310;29;20023;-73
2022/10/13 10:14:01;;;;;;;38.88;16.10;;;14.40;99.90;;;;;;4939016;29;20035;-73
2022/10/13 10:16:39;;;;;;;32.08;15.48;;;14.40;99.90;;;;;;4956370;29;20039;-73
2022/10/13 10:19:25;;;;;;;31.60;15.17;;;14.40;99.90;;;;;;4956571;29;20479;-73
2022/10/13 10:22:15;;;;;;;31.00;15.93;;;14.40;99.90;;;;;;4956021;29;20023;-74
2022/10/13 10:24:57;;;;;;;;;;;14.30;99.90;;;;;;4956501;29;20043;-73
2022/10/13 10:27:35;;;;;;;30.55;16.02;;;14.30;99.90;;;;;;4956066;29;19919;-73
2022/10/13 10:30:03;;;;;;;30.98;16.13;;;14.20;99.90;;;;;;4938825;29;20023;-73
2022/10/13 10:32:44;;;;;;;28.05;15.85;;;14.30;99.90;;;;;;4955934;29;20027;-73
2022/10/13 10:35:25;;;;;;;30.92;14.55;;;14.30;99.90;;;;;;4956118;29;20384;-73
2022/10/13 10:38:13;;;;;;;24.95;15.07;;;14.20;99.90;;;;;;4939248;29;20078;-73
2022/10/13 10:40:50;;;;;;;28.50;16.92;;;14.10;99.90;;;;;;4956307;29;20509;-73
2022/10/13 10:43:34;;;;;;;32.30;14.80;;;14.10;99.90;;;;;;4938544;29;20491;-73
2022/10/13 10:46:00;;;;;;;31.42;15.73;;;14.20;99.90;;;;;;4938528;29;20035;-73
2022/10/13 10:48:38;;;;;;;34.35;16.92;;;14.30;99.90;;;;;;4955285;28;20030;-73
2022/10/13 10:51:11;;;;;;;34.03;16.40;;;14.30;99.90;;;;;;4938395;29;20079;-73
2022/10/13 10:53:39;;;;;;;33.03;17.48;;;14.20;99.90;;;;;;4955424;29;20035;-73
2022/10/13 10:56:18;;;;;;;33.25;16.80;;;14.00;99.90;;;;;;4955845;29;20077;-73
2022/10/13 10:58:56;;;;;;;35.13;17.40;;;13.90;99.90;;;;;;4938391;29;20027;-73
2022/10/13 11:01:50;;;;;;;31.13;15.95;;;13.80;99.90;;;;;;4955687;29;20035;-73
2022/10/13 11:04:39;;;;;;;32.70;16.00;;;13.80;99.90;;;;;;4952205;28;20484;-73
2022/10/13 11:07:10;;;;;;;32.33;17.58;;;13.80;99.90;;;;;;4955938;29;20027;-74
2022/10/13 11:09:41;;;;;;;36.83;16.50;;;13.90;99.90;;;;;;4955980;29;20097;-74
2022/10/13 11:12:19;;;;;;;28.58;15.90;;;13.90;99.90;;;;;;4955265;29;20514;-73
2022/10/13 11:15:01;;;;;;;35.30;16.98;;;14.00;99.90;;;;;;4955566;29;20038;-74
2022/10/13 11:17:29;;;;;;;38.10;17.60;;;14.00;99.90;;;;;;4955499;29;20063;-73
2022/10/13 11:19:56;;;;;;;45.38;18.15;;;14.00;99.90;;;;;;4938206;29;20032;-73
2022/10/13 11:22:27;;;;;;;33.65;16.67;;;14.00;99.90;;;;;;4955530;29;20059;-73
2022/10/13 11:24:55;;;;;;;37.40;17.45;;;14.00;99.90;;;;;;4955521;29;20136;-74
2022/10/13 11:27:34;;;;;;;32.70;16.48;;;14.00;99.90;;;;;;4955537;29;20027;-73
2022/10/13 11:30:00;;;;;;;31.08;16.30;;;14.00;99.90;;;;;;4955529;29;20059;-73
2022/10/13 11:35:09;;;;;;;34.08;16.15;;;14.10;99.90;;;;;;4956116;28;20054;-74
2022/10/13 11:37:56;;;;;;;40.55;16.45;;;14.10;99.90;;;;;;4937980;29;20023;-73
2022/10/13 11:40:49;;;;;;;35.08;17.48;;;14.10;99.90;;;;;;4938207;29;20047;-74
2022/10/13 11:43:30;;;;;;;30.98;16.80;;;14.20;99.90;;;;;;4938238;29;20123;-73
2022/10/13 11:46:13;;;;;;;34.13;16.73;;;14.30;99.90;;;;;;4955015;29;20023;-74
2022/10/13 11:48:39;;;;;;;34.60;16.52;;;14.40;99.90;;;;;;4955385;29;20071;-73
2022/10/13 11:51:12;;;;;;;33.85;17.60;;;14.50;99.90;;;;;;4955065;29;20102;-74
2022/10/13 11:53:57;;;;;;;31.27;17.27;;;14.50;99.90;;;;;;4955152;29;20038;-73
2022/10/13 11:56:42;;;;;;;30.10;17.45;;;14.60;99.90;;;;;;4938019;29;20023;-73
2022/10/13 11:59:30;;;;;;;37.65;17.75;;;14.60;99.90;;;;;;4938678;29;20602;-74
2022/10/13 12:02:09;;;;;;;37.22;16.48;;;14.60;99.90;;;;;;4968412;28;20026;-74
2022/10/13 12:04:35;;;;;;;;;;;14.70;99.90;;;;;;4997838;28;20466;-73
2022/10/13 12:07:04;;;;;;;31.23;16.85;;;14.70;99.90;;;;;;4980016;28;19910;-85
2022/10/13 12:09:31;;;;;;;34.80;17.13;;;14.70;99.90;;;;;;4997932;28;20097;-81
2022/10/13 12:12:12;;;;;;;33.53;17.25;;;14.80;99.90;;;;;;4979913;28;20038;-74
2022/10/13 12:14:44;;;;;;;29.77;17.42;;;14.80;99.90;;;;;;4996957;28;20069;-75
2022/10/13 12:17:25;;;;;;;33.67;17.88;;;14.80;99.90;;;;;;4979878;28;20026;-76
2022/10/13 12:19:56;;;;;;;33.20;17.52;;;14.70;99.90;;;;;;4980278;28;20393;-76
2022/10/13 12:22:22;;;;;;;35.30;16.88;;;14.70;99.90;;;;;;4979406;28;20026;-75
2022/10/13 12:25:14;;;;;;;35.97;17.45;;;14.70;99.90;;;;;;4996668;28;20121;-76
2022/10/13 12:27:52;;;;;;;31.73;16.77;;;14.60;99.90;;;;;;4997037;28;20034;-74
2022/10/13 12:30:22;;;;;;;32.55;16.85;;;14.70;99.90;;;;;;4997124;28;20109;-75
2022/10/13 12:32:51;;;;;;;31.17;15.93;;;14.80;99.90;;;;;;4979491;28;20073;-75
2022/10/13 12:35:19;;;;;;;37.90;17.98;;;14.90;99.90;;;;;;4977351;28;20042;-75
2022/10/13 12:37:47;;;;;;;37.10;17.58;;;14.90;99.90;;;;;;4977280;28;20064;-75
2022/10/13 12:40:15;;;;;;;27.58;16.52;;;14.90;99.90;;;;;;4959813;28;20070;-75
2022/10/13 12:42:42;;;;;;;32.33;17.13;;;14.90;99.90;;;;;;4959716;28;20067;-75
2022/10/13 12:45:18;;;;;;;37.38;18.52;;;14.90;99.90;;;;;;4960267;28;20082;-75
2022/10/13 12:47:43;;;;;;;36.15;17.80;;;14.90;99.90;;;;;;4959824;28;20034;-75